sensor_id;sensor_type;location;lat;lon;timestamp;temperature;humidity
13409;DHT22;6775;49.574;11.170;2022-12-29T00:00:59;7.20;99.90
13409;DHT22;6775;49.574;11.170;2022-12-29T00:03:27;7.30;99.90
13409;DHT22;6775;49.574;11.170;2022-12-29T00:05:58;7.30;99.90
13409;DHT22;6775;49.574;11.170;2022-12-29T00:08:27;7.30;99.90
13409;DHT22;6775;49.574;11.170;2022-12-29T00:11:06;7.40;99.90
13409;DHT22;6775;49.574;11.170;2022-12-29T00:13:35;7.40;99.90
13409;DHT22;6775;49.574;11.170;2022-12-29T00:16:20;7.40;99.90
13409;DHT22;6775;49.574;11.170;2022-12-29T00:18:48;7.50;99.90
13409;DHT22;6775;49.574;11.170;2022-12-29T00:21:19;7.50;99.90
13409;DHT22;6775;49.574;11.170;2022-12-29T00:24:06;7.50;99.90
13409;DHT22;6775;49.574;11.170;2022-12-29T00:26:58;7.60;99.90
13409;DHT22;6775;49.574;11.170;2022-12-29T00:29:44;7.60;99.90
13409;DHT22;6775;49.574;11.170;2022-12-29T00:32:29;7.60;99.90
13409;DHT22;6775;49.574;11.170;2022-12-29T00:35:20;7.60;99.90
13409;DHT22;6775;49.574;11.170;2022-12-29T00:37:50;7.60;99.90
13409;DHT22;6775;49.574;11.170;2022-12-29T00:40:33;7.60;99.90
13409;DHT22;6775;49.574;11.170;2022-12-29T00:43:18;7.70;99.90
13409;DHT22;6775;49.574;11.170;2022-12-29T00:46:04;7.70;99.90
13409;DHT22;6775;49.574;11.170;2022-12-29T00:48:32;7.70;99.90
13409;DHT22;6775;49.574;11.170;2022-12-29T00:51:18;7.70;99.90
13409;DHT22;6775;49.574;11.170;2022-12-29T00:53:47;7.70;99.90
13409;DHT22;6775;49.574;11.170;2022-12-29T00:56:15;7.70;99.90
13409;DHT22;6775;49.574;11.170;2022-12-29T00:58:43;7.70;99.90
13409;DHT22;6775;49.574;11.170;2022-12-29T01:01:11;7.70;99.90
13409;DHT22;6775;49.574;11.170;2022-12-29T01:03:39;7.80;99.90
13409;DHT22;6775;49.574;11.170;2022-12-29T01:06:09;7.80;99.90
13409;DHT22;6775;49.574;11.170;2022-12-29T01:08:37;8.00;99.90
13409;DHT22;6775;49.574;11.170;2022-12-29T01:11:08;7.90;99.90
13409;DHT22;6775;49.574;11.170;2022-12-29T01:13:36;8.00;99.90
13409;DHT22;6775;49.574;11.170;2022-12-29T01:16:05;8.00;99.90
13409;DHT22;6775;49.574;11.170;2022-12-29T01:18:33;8.00;99.90
13409;DHT22;6775;49.574;11.170;2022-12-29T01:21:03;8.00;99.90
13409;DHT22;6775;49.574;11.170;2022-12-29T01:23:32;8.00;99.90
13409;DHT22;6775;49.574;11.170;2022-12-29T01:26:09;8.10;99.90
13409;DHT22;6775;49.574;11.170;2022-12-29T01:28:37;8.00;99.90
13409;DHT22;6775;49.574;11.170;2022-12-29T01:31:06;8.00;99.90
13409;DHT22;6775;49.574;11.170;2022-12-29T01:33:34;8.00;99.90
13409;DHT22;6775;49.574;11.170;2022-12-29T01:36:02;8.00;99.90
13409;DHT22;6775;49.574;11.170;2022-12-29T01:38:31;8.00;99.90
13409;DHT22;6775;49.574;11.170;2022-12-29T01:40:59;8.00;99.90
13409;DHT22;6775;49.574;11.170;2022-12-29T01:43:40;8.00;99.90
13409;DHT22;6775;49.574;11.170;2022-12-29T01:46:13;8.20;99.90
13409;DHT22;6775;49.574;11.170;2022-12-29T01:48:44;8.10;99.90
13409;DHT22;6775;49.574;11.170;2022-12-29T01:51:13;8.10;99.90
13409;DHT22;6775;49.574;11.170;2022-12-29T01:53:41;8.10;99.90
13409;DHT22;6775;49.574;11.170;2022-12-29T01:56:12;8.10;99.90
13409;DHT22;6775;49.574;11.170;2022-12-29T01:58:46;8.10;99.90
13409;DHT22;6775;49.574;11.170;2022-12-29T02:01:18;8.10;99.90
13409;DHT22;6775;49.574;11.170;2022-12-29T02:03:47;8.10;99.90
13409;DHT22;6775;49.574;11.170;2022-12-29T02:06:19;8.10;99.90
13409;DHT22;6775;49.574;11.170;2022-12-29T02:08:50;8.10;99.90
13409;DHT22;6775;49.574;11.170;2022-12-29T02:11:19;8.10;99.90
13409;DHT22;6775;49.574;11.170;2022-12-29T02:13:49;8.10;99.90
13409;DHT22;6775;49.574;11.170;2022-12-29T02:16:30;8.10;99.90
13409;DHT22;6775;49.574;11.170;2022-12-29T02:19:25;8.10;99.90
13409;DHT22;6775;49.574;11.170;2022-12-29T02:22:02;8.10;99.90
13409;DHT22;6775;49.574;11.170;2022-12-29T02:25:11;8.10;99.90
13409;DHT22;6775;49.574;11.170;2022-12-29T02:28:08;8.10;99.90
13409;DHT22;6775;49.574;11.170;2022-12-29T02:30:53;8.10;99.90
13409;DHT22;6775;49.574;11.170;2022-12-29T02:33:36;8.10;99.90
13409;DHT22;6775;49.574;11.170;2022-12-29T02:36:10;8.10;99.90
13409;DHT22;6775;49.574;11.170;2022-12-29T02:38:50;8.10;99.90
13409;DHT22;6775;49.574;11.170;2022-12-29T02:41:22;8.10;99.90
13409;DHT22;6775;49.574;11.170;2022-12-29T02:43:58;8.10;99.90
13409;DHT22;6775;49.574;11.170;2022-12-29T02:46:35;8.10;99.90
13409;DHT22;6775;49.574;11.170;2022-12-29T02:49:09;8.10;99.90
13409;DHT22;6775;49.574;11.170;2022-12-29T02:51:44;8.10;99.90
13409;DHT22;6775;49.574;11.170;2022-12-29T02:54:16;8.10;99.90
13409;DHT22;6775;49.574;11.170;2022-12-29T02:57:02;8.20;99.90
13409;DHT22;6775;49.574;11.170;2022-12-29T02:59:30;8.20;99.90
13409;DHT22;6775;49.574;11.170;2022-12-29T03:02:19;8.20;99.90
13409;DHT22;6775;49.574;11.170;2022-12-29T03:05:15;8.10;99.90
13409;DHT22;6775;49.574;11.170;2022-12-29T03:07:50;8.10;99.90
13409;DHT22;6775;49.574;11.170;2022-12-29T03:10:32;8.10;99.90
13409;DHT22;6775;49.574;11.170;2022-12-29T03:13:09;8.10;99.90
13409;DHT22;6775;49.574;11.170;2022-12-29T03:16:05;8.10;99.90
13409;DHT22;6775;49.574;11.170;2022-12-29T03:18:41;8.10;99.90
13409;DHT22;6775;49.574;11.170;2022-12-29T03:21:15;8.10;99.90
13409;DHT22;6775;49.574;11.170;2022-12-29T03:23:46;8.10;99.90
13409;DHT22;6775;49.574;11.170;2022-12-29T03:26:18;8.10;99.90
13409;DHT22;6775;49.574;11.170;2022-12-29T03:28:51;8.10;99.90
13409;DHT22;6775;49.574;11.170;2022-12-29T03:31:21;8.10;99.90
13409;DHT22;6775;49.574;11.170;2022-12-29T03:33:53;8.10;99.90
13409;DHT22;6775;49.574;11.170;2022-12-29T03:36:27;8.10;99.90
13409;DHT22;6775;49.574;11.170;2022-12-29T03:38:59;8.20;99.90
13409;DHT22;6775;49.574;11.170;2022-12-29T03:41:31;8.20;99.90
13409;DHT22;6775;49.574;11.170;2022-12-29T03:44:00;8.20;99.90
13409;DHT22;6775;49.574;11.170;2022-12-29T03:46:28;8.20;99.90
13409;DHT22;6775;49.574;11.170;2022-12-29T03:48:58;8.20;99.90
13409;DHT22;6775;49.574;11.170;2022-12-29T03:51:26;8.30;99.90
13409;DHT22;6775;49.574;11.170;2022-12-29T03:53:53;8.30;99.90
13409;DHT22;6775;49.574;11.170;2022-12-29T03:56:21;8.30;99.90
13409;DHT22;6775;49.574;11.170;2022-12-29T03:58:49;8.30;99.90
13409;DHT22;6775;49.574;11.170;2022-12-29T04:01:17;8.30;99.90
13409;DHT22;6775;49.574;11.170;2022-12-29T04:03:45;8.30;99.90
13409;DHT22;6775;49.574;11.170;2022-12-29T04:06:15;8.30;99.90
13409;DHT22;6775;49.574;11.170;2022-12-29T04:08:43;8.30;99.90
13409;DHT22;6775;49.574;11.170;2022-12-29T04:11:11;8.30;99.90
13409;DHT22;6775;49.574;11.170;2022-12-29T04:13:40;8.30;99.90
13409;DHT22;6775;49.574;11.170;2022-12-29T04:16:08;8.30;99.90
13409;DHT22;6775;49.574;11.170;2022-12-29T04:18:36;8.30;99.90
13409;DHT22;6775;49.574;11.170;2022-12-29T04:21:04;8.30;99.90
13409;DHT22;6775;49.574;11.170;2022-12-29T04:23:36;8.20;99.90
13409;DHT22;6775;49.574;11.170;2022-12-29T04:26:05;8.20;99.90
13409;DHT22;6775;49.574;11.170;2022-12-29T04:28:34;8.20;99.90
13409;DHT22;6775;49.574;11.170;2022-12-29T04:31:02;8.20;99.90
13409;DHT22;6775;49.574;11.170;2022-12-29T04:33:30;8.20;99.90
13409;DHT22;6775;49.574;11.170;2022-12-29T04:35:58;8.20;99.90
13409;DHT22;6775;49.574;11.170;2022-12-29T04:38:27;8.20;99.90
13409;DHT22;6775;49.574;11.170;2022-12-29T04:40:59;8.10;99.90
13409;DHT22;6775;49.574;11.170;2022-12-29T04:43:27;8.20;99.90
13409;DHT22;6775;49.574;11.170;2022-12-29T04:45:55;8.10;99.90
13409;DHT22;6775;49.574;11.170;2022-12-29T04:48:23;8.10;99.90
13409;DHT22;6775;49.574;11.170;2022-12-29T04:50:51;8.10;99.90
13409;DHT22;6775;49.574;11.170;2022-12-29T04:53:19;8.10;99.90
13409;DHT22;6775;49.574;11.170;2022-12-29T04:55:49;8.10;99.90
13409;DHT22;6775;49.574;11.170;2022-12-29T04:58:18;8.10;99.90
13409;DHT22;6775;49.574;11.170;2022-12-29T05:00:49;8.10;99.90
13409;DHT22;6775;49.574;11.170;2022-12-29T05:03:17;8.10;99.90
13409;DHT22;6775;49.574;11.170;2022-12-29T05:05:46;8.10;99.90
13409;DHT22;6775;49.574;11.170;2022-12-29T05:08:14;8.10;99.90
13409;DHT22;6775;49.574;11.170;2022-12-29T05:10:44;8.10;99.90
13409;DHT22;6775;49.574;11.170;2022-12-29T05:13:12;8.10;99.90
13409;DHT22;6775;49.574;11.170;2022-12-29T05:15:47;8.00;99.90
13409;DHT22;6775;49.574;11.170;2022-12-29T05:18:15;8.00;99.90
13409;DHT22;6775;49.574;11.170;2022-12-29T05:20:43;7.90;99.90
13409;DHT22;6775;49.574;11.170;2022-12-29T05:23:12;8.00;99.90
13409;DHT22;6775;49.574;11.170;2022-12-29T05:25:40;7.90;99.90
13409;DHT22;6775;49.574;11.170;2022-12-29T05:28:08;7.90;99.90
13409;DHT22;6775;49.574;11.170;2022-12-29T05:30:35;7.90;99.90
13409;DHT22;6775;49.574;11.170;2022-12-29T05:33:05;8.00;99.90
13409;DHT22;6775;49.574;11.170;2022-12-29T05:35:33;8.00;99.90
13409;DHT22;6775;49.574;11.170;2022-12-29T05:38:01;8.00;99.90
13409;DHT22;6775;49.574;11.170;2022-12-29T05:40:29;8.00;99.90
13409;DHT22;6775;49.574;11.170;2022-12-29T05:42:57;8.00;99.90
13409;DHT22;6775;49.574;11.170;2022-12-29T05:45:25;8.00;99.90
13409;DHT22;6775;49.574;11.170;2022-12-29T05:47:53;7.90;99.90
13409;DHT22;6775;49.574;11.170;2022-12-29T05:50:22;7.90;99.90
13409;DHT22;6775;49.574;11.170;2022-12-29T05:52:50;7.90;99.90
13409;DHT22;6775;49.574;11.170;2022-12-29T05:55:18;7.80;99.90
13409;DHT22;6775;49.574;11.170;2022-12-29T05:57:46;7.80;99.90
13409;DHT22;6775;49.574;11.170;2022-12-29T06:00:15;7.80;99.90
13409;DHT22;6775;49.574;11.170;2022-12-29T06:02:43;7.80;99.90
13409;DHT22;6775;49.574;11.170;2022-12-29T06:05:11;7.70;99.90
13409;DHT22;6775;49.574;11.170;2022-12-29T06:07:40;7.70;99.90
13409;DHT22;6775;49.574;11.170;2022-12-29T06:10:08;7.60;99.90
13409;DHT22;6775;49.574;11.170;2022-12-29T06:12:36;7.60;99.90
13409;DHT22;6775;49.574;11.170;2022-12-29T06:15:05;7.60;99.90
13409;DHT22;6775;49.574;11.170;2022-12-29T06:17:33;7.60;99.90
13409;DHT22;6775;49.574;11.170;2022-12-29T06:20:02;7.50;99.90
13409;DHT22;6775;49.574;11.170;2022-12-29T06:22:30;7.50;99.90
13409;DHT22;6775;49.574;11.170;2022-12-29T06:24:59;7.50;99.90
13409;DHT22;6775;49.574;11.170;2022-12-29T06:27:31;7.50;99.90
13409;DHT22;6775;49.574;11.170;2022-12-29T06:29:59;7.60;99.90
13409;DHT22;6775;49.574;11.170;2022-12-29T06:32:27;7.60;99.90
13409;DHT22;6775;49.574;11.170;2022-12-29T06:34:55;7.60;99.90
13409;DHT22;6775;49.574;11.170;2022-12-29T06:37:23;7.60;99.90
13409;DHT22;6775;49.574;11.170;2022-12-29T06:39:51;7.60;99.90
13409;DHT22;6775;49.574;11.170;2022-12-29T06:42:20;7.60;99.90
13409;DHT22;6775;49.574;11.170;2022-12-29T06:44:48;7.70;99.90
13409;DHT22;6775;49.574;11.170;2022-12-29T06:47:16;7.70;99.90
13409;DHT22;6775;49.574;11.170;2022-12-29T06:49:45;7.70;99.90
13409;DHT22;6775;49.574;11.170;2022-12-29T06:52:13;7.70;99.90
13409;DHT22;6775;49.574;11.170;2022-12-29T06:54:41;7.70;99.90
13409;DHT22;6775;49.574;11.170;2022-12-29T06:57:09;7.70;99.90
13409;DHT22;6775;49.574;11.170;2022-12-29T06:59:38;7.70;99.90
13409;DHT22;6775;49.574;11.170;2022-12-29T07:02:06;7.60;99.90
13409;DHT22;6775;49.574;11.170;2022-12-29T07:04:34;7.70;99.90
13409;DHT22;6775;49.574;11.170;2022-12-29T07:07:02;7.60;99.90
13409;DHT22;6775;49.574;11.170;2022-12-29T07:09:30;7.60;99.90
13409;DHT22;6775;49.574;11.170;2022-12-29T07:11:59;7.60;99.90
13409;DHT22;6775;49.574;11.170;2022-12-29T07:14:27;7.60;99.90
13409;DHT22;6775;49.574;11.170;2022-12-29T07:16:56;7.60;99.90
13409;DHT22;6775;49.574;11.170;2022-12-29T07:19:24;7.60;99.90
13409;DHT22;6775;49.574;11.170;2022-12-29T07:21:54;7.60;99.90
13409;DHT22;6775;49.574;11.170;2022-12-29T07:24:22;7.60;99.90
13409;DHT22;6775;49.574;11.170;2022-12-29T07:26:52;7.60;99.90
13409;DHT22;6775;49.574;11.170;2022-12-29T07:29:20;7.60;99.90
13409;DHT22;6775;49.574;11.170;2022-12-29T07:31:48;7.70;99.90
13409;DHT22;6775;49.574;11.170;2022-12-29T07:34:17;7.70;99.90
13409;DHT22;6775;49.574;11.170;2022-12-29T07:36:45;7.70;99.90
13409;DHT22;6775;49.574;11.170;2022-12-29T07:39:13;7.80;99.90
13409;DHT22;6775;49.574;11.170;2022-12-29T07:41:41;7.80;99.90
13409;DHT22;6775;49.574;11.170;2022-12-29T07:44:09;7.90;99.90
13409;DHT22;6775;49.574;11.170;2022-12-29T07:46:37;7.90;99.90
13409;DHT22;6775;49.574;11.170;2022-12-29T07:49:24;7.90;99.90
13409;DHT22;6775;49.574;11.170;2022-12-29T07:51:52;8.00;99.90
13409;DHT22;6775;49.574;11.170;2022-12-29T07:54:19;8.00;99.90
13409;DHT22;6775;49.574;11.170;2022-12-29T07:56:50;8.10;99.90
13409;DHT22;6775;49.574;11.170;2022-12-29T07:59:18;8.10;99.90
13409;DHT22;6775;49.574;11.170;2022-12-29T08:01:46;8.10;99.90
13409;DHT22;6775;49.574;11.170;2022-12-29T08:04:14;8.20;99.90
13409;DHT22;6775;49.574;11.170;2022-12-29T08:06:43;8.20;99.90
13409;DHT22;6775;49.574;11.170;2022-12-29T08:09:12;8.30;99.90
13409;DHT22;6775;49.574;11.170;2022-12-29T08:11:47;8.40;99.90
13409;DHT22;6775;49.574;11.170;2022-12-29T08:14:16;8.40;99.90
13409;DHT22;6775;49.574;11.170;2022-12-29T08:16:43;8.40;99.90
13409;DHT22;6775;49.574;11.170;2022-12-29T08:19:12;8.50;99.90
13409;DHT22;6775;49.574;11.170;2022-12-29T08:21:40;8.50;99.90
13409;DHT22;6775;49.574;11.170;2022-12-29T08:24:09;8.60;99.90
13409;DHT22;6775;49.574;11.170;2022-12-29T08:26:38;8.60;99.90
13409;DHT22;6775;49.574;11.170;2022-12-29T08:29:06;8.60;99.90
13409;DHT22;6775;49.574;11.170;2022-12-29T08:31:34;8.60;99.90
13409;DHT22;6775;49.574;11.170;2022-12-29T08:34:03;8.70;99.90
13409;DHT22;6775;49.574;11.170;2022-12-29T08:36:31;8.70;99.90
13409;DHT22;6775;49.574;11.170;2022-12-29T08:38:59;8.70;99.90
13409;DHT22;6775;49.574;11.170;2022-12-29T08:41:28;8.80;99.90
13409;DHT22;6775;49.574;11.170;2022-12-29T08:43:56;8.90;99.90
13409;DHT22;6775;49.574;11.170;2022-12-29T08:46:24;8.90;99.90
13409;DHT22;6775;49.574;11.170;2022-12-29T08:48:53;9.00;99.90
13409;DHT22;6775;49.574;11.170;2022-12-29T08:51:21;9.10;99.90
13409;DHT22;6775;49.574;11.170;2022-12-29T08:53:51;9.20;99.90
13409;DHT22;6775;49.574;11.170;2022-12-29T08:56:19;9.40;99.90
13409;DHT22;6775;49.574;11.170;2022-12-29T08:58:48;9.50;99.90
13409;DHT22;6775;49.574;11.170;2022-12-29T09:01:16;9.60;99.90
13409;DHT22;6775;49.574;11.170;2022-12-29T09:03:44;9.50;99.90
13409;DHT22;6775;49.574;11.170;2022-12-29T09:06:32;9.50;99.90
13409;DHT22;6775;49.574;11.170;2022-12-29T09:09:06;9.50;99.90
13409;DHT22;6775;49.574;11.170;2022-12-29T09:11:34;9.50;99.90
13409;DHT22;6775;49.574;11.170;2022-12-29T09:14:04;9.60;99.90
13409;DHT22;6775;49.574;11.170;2022-12-29T09:16:32;9.60;99.90
13409;DHT22;6775;49.574;11.170;2022-12-29T09:19:00;9.60;99.90
13409;DHT22;6775;49.574;11.170;2022-12-29T09:21:28;9.80;99.90
13409;DHT22;6775;49.574;11.170;2022-12-29T09:23:56;9.90;99.90
13409;DHT22;6775;49.574;11.170;2022-12-29T09:26:24;10.10;99.90
13409;DHT22;6775;49.574;11.170;2022-12-29T09:28:52;10.20;99.90
13409;DHT22;6775;49.574;11.170;2022-12-29T09:31:21;10.30;99.90
13409;DHT22;6775;49.574;11.170;2022-12-29T09:33:49;10.30;99.90
13409;DHT22;6775;49.574;11.170;2022-12-29T09:36:17;10.30;99.90
13409;DHT22;6775;49.574;11.170;2022-12-29T09:38:45;10.30;99.90
13409;DHT22;6775;49.574;11.170;2022-12-29T09:41:19;10.40;99.90
13409;DHT22;6775;49.574;11.170;2022-12-29T09:44:08;10.40;99.90
13409;DHT22;6775;49.574;11.170;2022-12-29T09:46:43;10.50;99.90
13409;DHT22;6775;49.574;11.170;2022-12-29T09:49:19;10.50;99.90
13409;DHT22;6775;49.574;11.170;2022-12-29T09:51:52;10.40;99.90
13409;DHT22;6775;49.574;11.170;2022-12-29T09:54:34;10.40;99.90
13409;DHT22;6775;49.574;11.170;2022-12-29T09:57:04;10.30;99.90
13409;DHT22;6775;49.574;11.170;2022-12-29T09:59:39;10.30;99.90
13409;DHT22;6775;49.574;11.170;2022-12-29T10:02:20;10.30;99.90
13409;DHT22;6775;49.574;11.170;2022-12-29T10:04:51;10.30;99.90
13409;DHT22;6775;49.574;11.170;2022-12-29T10:07:29;10.30;99.90
13409;DHT22;6775;49.574;11.170;2022-12-29T10:10:07;10.30;99.90
13409;DHT22;6775;49.574;11.170;2022-12-29T10:12:51;10.30;99.90
13409;DHT22;6775;49.574;11.170;2022-12-29T10:15:33;10.30;99.90
13409;DHT22;6775;49.574;11.170;2022-12-29T10:18:18;10.30;99.90
13409;DHT22;6775;49.574;11.170;2022-12-29T10:20:52;10.30;99.90
13409;DHT22;6775;49.574;11.170;2022-12-29T10:23:27;10.30;99.90
13409;DHT22;6775;49.574;11.170;2022-12-29T10:25:57;10.20;99.90
13409;DHT22;6775;49.574;11.170;2022-12-29T10:28:34;10.20;99.90
13409;DHT22;6775;49.574;11.170;2022-12-29T10:31:05;10.20;99.90
13409;DHT22;6775;49.574;11.170;2022-12-29T10:33:41;10.20;99.90
13409;DHT22;6775;49.574;11.170;2022-12-29T10:36:14;10.20;99.90
13409;DHT22;6775;49.574;11.170;2022-12-29T10:38:48;10.20;99.90
13409;DHT22;6775;49.574;11.170;2022-12-29T10:41:23;10.20;99.90
13409;DHT22;6775;49.574;11.170;2022-12-29T10:43:53;10.20;99.90
13409;DHT22;6775;49.574;11.170;2022-12-29T10:46:23;10.20;99.90
13409;DHT22;6775;49.574;11.170;2022-12-29T10:48:54;10.30;99.90
13409;DHT22;6775;49.574;11.170;2022-12-29T10:51:24;10.40;99.90
13409;DHT22;6775;49.574;11.170;2022-12-29T10:53:59;10.50;99.90
13409;DHT22;6775;49.574;11.170;2022-12-29T10:56:33;10.60;99.90
13409;DHT22;6775;49.574;11.170;2022-12-29T10:59:07;10.70;99.90
13409;DHT22;6775;49.574;11.170;2022-12-29T11:01:45;10.90;99.90
13409;DHT22;6775;49.574;11.170;2022-12-29T11:04:29;11.20;99.90
13409;DHT22;6775;49.574;11.170;2022-12-29T11:06:59;11.40;99.90
13409;DHT22;6775;49.574;11.170;2022-12-29T11:09:29;11.50;99.90
13409;DHT22;6775;49.574;11.170;2022-12-29T11:12:22;11.50;99.90
13409;DHT22;6775;49.574;11.170;2022-12-29T11:15:06;11.60;99.90
13409;DHT22;6775;49.574;11.170;2022-12-29T11:17:44;11.50;99.90
13409;DHT22;6775;49.574;11.170;2022-12-29T11:20:28;11.40;99.90
13409;DHT22;6775;49.574;11.170;2022-12-29T11:22:56;11.40;99.90
13409;DHT22;6775;49.574;11.170;2022-12-29T11:25:24;11.30;99.90
13409;DHT22;6775;49.574;11.170;2022-12-29T11:27:57;11.30;99.90
13409;DHT22;6775;49.574;11.170;2022-12-29T11:30:28;11.20;99.90
13409;DHT22;6775;49.574;11.170;2022-12-29T11:32:57;11.20;99.90
13409;DHT22;6775;49.574;11.170;2022-12-29T11:35:35;11.20;99.90
13409;DHT22;6775;49.574;11.170;2022-12-29T11:38:03;11.20;99.90
13409;DHT22;6775;49.574;11.170;2022-12-29T11:40:38;11.30;99.90
13409;DHT22;6775;49.574;11.170;2022-12-29T11:43:11;11.30;99.90
13409;DHT22;6775;49.574;11.170;2022-12-29T11:45:47;11.30;99.90
13409;DHT22;6775;49.574;11.170;2022-12-29T11:48:18;11.30;99.90
13409;DHT22;6775;49.574;11.170;2022-12-29T11:50:52;11.30;99.90
13409;DHT22;6775;49.574;11.170;2022-12-29T11:53:22;11.40;99.90
13409;DHT22;6775;49.574;11.170;2022-12-29T11:55:53;11.40;99.90
13409;DHT22;6775;49.574;11.170;2022-12-29T11:58:29;11.40;99.90
13409;DHT22;6775;49.574;11.170;2022-12-29T12:01:02;11.50;99.90
13409;DHT22;6775;49.574;11.170;2022-12-29T12:03:32;11.50;99.90
13409;DHT22;6775;49.574;11.170;2022-12-29T12:06:03;11.50;99.90
13409;DHT22;6775;49.574;11.170;2022-12-29T12:08:37;11.50;99.90
13409;DHT22;6775;49.574;11.170;2022-12-29T12:11:10;11.50;99.90
13409;DHT22;6775;49.574;11.170;2022-12-29T12:13:43;11.50;99.90
13409;DHT22;6775;49.574;11.170;2022-12-29T12:16:17;11.70;99.90
13409;DHT22;6775;49.574;11.170;2022-12-29T12:18:47;11.70;99.90
13409;DHT22;6775;49.574;11.170;2022-12-29T12:21:23;11.70;99.90
13409;DHT22;6775;49.574;11.170;2022-12-29T12:26:55;11.60;99.90
13409;DHT22;6775;49.574;11.170;2022-12-29T12:29:32;11.50;99.90
13409;DHT22;6775;49.574;11.170;2022-12-29T12:32:09;11.50;99.90
13409;DHT22;6775;49.574;11.170;2022-12-29T12:34:41;11.50;99.90
13409;DHT22;6775;49.574;11.170;2022-12-29T12:37:33;11.40;99.90
13409;DHT22;6775;49.574;11.170;2022-12-29T12:40:40;11.40;99.90
13409;DHT22;6775;49.574;11.170;2022-12-29T12:43:39;11.30;99.90
13409;DHT22;6775;49.574;11.170;2022-12-29T12:46:19;11.30;99.90
13409;DHT22;6775;49.574;11.170;2022-12-29T12:49:11;11.30;99.90
13409;DHT22;6775;49.574;11.170;2022-12-29T12:51:49;11.20;99.90
13409;DHT22;6775;49.574;11.170;2022-12-29T12:54:43;11.20;99.90
13409;DHT22;6775;49.574;11.170;2022-12-29T12:57:19;11.20;99.90
13409;DHT22;6775;49.574;11.170;2022-12-29T12:59:56;11.10;99.90
13409;DHT22;6775;49.574;11.170;2022-12-29T13:02:37;11.10;99.90
13409;DHT22;6775;49.574;11.170;2022-12-29T13:05:24;11.10;99.90
13409;DHT22;6775;49.574;11.170;2022-12-29T13:08:03;11.10;99.90
13409;DHT22;6775;49.574;11.170;2022-12-29T13:10:41;11.10;99.90
13409;DHT22;6775;49.574;11.170;2022-12-29T13:16:28;11.10;99.90
13409;DHT22;6775;49.574;11.170;2022-12-29T13:19:01;11.10;99.90
13409;DHT22;6775;49.574;11.170;2022-12-29T13:21:42;11.10;99.90
13409;DHT22;6775;49.574;11.170;2022-12-29T13:24:31;11.10;99.90
13409;DHT22;6775;49.574;11.170;2022-12-29T13:27:11;11.10;99.90
13409;DHT22;6775;49.574;11.170;2022-12-29T13:29:47;11.00;99.90
13409;DHT22;6775;49.574;11.170;2022-12-29T13:32:24;11.00;99.90
13409;DHT22;6775;49.574;11.170;2022-12-29T13:35:05;11.00;99.90
13409;DHT22;6775;49.574;11.170;2022-12-29T13:37:43;11.00;99.90
13409;DHT22;6775;49.574;11.170;2022-12-29T13:40:15;11.00;99.90
13409;DHT22;6775;49.574;11.170;2022-12-29T13:42:55;11.00;99.90
13409;DHT22;6775;49.574;11.170;2022-12-29T13:45:25;11.00;99.90
13409;DHT22;6775;49.574;11.170;2022-12-29T13:47:57;11.00;99.90
13409;DHT22;6775;49.574;11.170;2022-12-29T13:50:33;11.00;99.90
13409;DHT22;6775;49.574;11.170;2022-12-29T13:53:10;11.00;99.90
13409;DHT22;6775;49.574;11.170;2022-12-29T13:55:48;11.00;99.90
13409;DHT22;6775;49.574;11.170;2022-12-29T13:58:26;11.00;99.90
13409;DHT22;6775;49.574;11.170;2022-12-29T14:01:02;10.90;99.90
13409;DHT22;6775;49.574;11.170;2022-12-29T14:03:47;11.00;99.90
13409;DHT22;6775;49.574;11.170;2022-12-29T14:06:21;11.00;99.90
13409;DHT22;6775;49.574;11.170;2022-12-29T14:08:53;11.00;99.90
13409;DHT22;6775;49.574;11.170;2022-12-29T14:11:23;10.90;99.90
13409;DHT22;6775;49.574;11.170;2022-12-29T14:13:53;10.90;99.90
13409;DHT22;6775;49.574;11.170;2022-12-29T14:16:27;10.90;99.90
13409;DHT22;6775;49.574;11.170;2022-12-29T14:19:03;10.90;99.90
13409;DHT22;6775;49.574;11.170;2022-12-29T14:21:32;10.90;99.90
13409;DHT22;6775;49.574;11.170;2022-12-29T14:27:42;10.80;99.90
13409;DHT22;6775;49.574;11.170;2022-12-29T14:33:27;10.80;99.90
13409;DHT22;6775;49.574;11.170;2022-12-29T14:35:56;10.70;99.90
13409;DHT22;6775;49.574;11.170;2022-12-29T14:38:29;10.80;99.90
13409;DHT22;6775;49.574;11.170;2022-12-29T14:41:27;10.80;99.90
13409;DHT22;6775;49.574;11.170;2022-12-29T14:43:59;10.70;99.90
13409;DHT22;6775;49.574;11.170;2022-12-29T14:46:47;10.80;99.90
13409;DHT22;6775;49.574;11.170;2022-12-29T14:49:21;10.70;99.90
13409;DHT22;6775;49.574;11.170;2022-12-29T14:51:52;10.60;99.90
13409;DHT22;6775;49.574;11.170;2022-12-29T14:54:43;10.60;99.90
13409;DHT22;6775;49.574;11.170;2022-12-29T14:57:25;10.50;99.90
13409;DHT22;6775;49.574;11.170;2022-12-29T14:59:54;10.50;99.90
13409;DHT22;6775;49.574;11.170;2022-12-29T15:02:26;10.40;99.90
13409;DHT22;6775;49.574;11.170;2022-12-29T15:05:02;10.40;99.90
13409;DHT22;6775;49.574;11.170;2022-12-29T15:07:31;10.40;99.90
13409;DHT22;6775;49.574;11.170;2022-12-29T15:10:05;10.40;99.90
13409;DHT22;6775;49.574;11.170;2022-12-29T15:12:37;10.40;99.90
13409;DHT22;6775;49.574;11.170;2022-12-29T15:15:18;10.40;99.90
13409;DHT22;6775;49.574;11.170;2022-12-29T15:17:47;10.40;99.90
13409;DHT22;6775;49.574;11.170;2022-12-29T15:20:22;10.40;99.90
13409;DHT22;6775;49.574;11.170;2022-12-29T15:22:53;10.40;99.90
13409;DHT22;6775;49.574;11.170;2022-12-29T15:25:22;10.30;99.90
13409;DHT22;6775;49.574;11.170;2022-12-29T15:27:51;10.30;99.90
13409;DHT22;6775;49.574;11.170;2022-12-29T15:30:20;10.30;99.90
13409;DHT22;6775;49.574;11.170;2022-12-29T15:32:49;10.30;99.90
13409;DHT22;6775;49.574;11.170;2022-12-29T15:35:29;10.40;99.90
13409;DHT22;6775;49.574;11.170;2022-12-29T15:37:58;10.30;99.90
13409;DHT22;6775;49.574;11.170;2022-12-29T15:40:29;10.30;99.90
13409;DHT22;6775;49.574;11.170;2022-12-29T15:43:18;10.30;99.90
13409;DHT22;6775;49.574;11.170;2022-12-29T15:45:50;10.30;99.90
13409;DHT22;6775;49.574;11.170;2022-12-29T15:48:22;10.30;99.90
13409;DHT22;6775;49.574;11.170;2022-12-29T15:50:52;10.30;99.90
13409;DHT22;6775;49.574;11.170;2022-12-29T15:53:23;10.30;99.90
13409;DHT22;6775;49.574;11.170;2022-12-29T15:55:57;10.20;99.90
13409;DHT22;6775;49.574;11.170;2022-12-29T15:58:30;10.30;99.90
13409;DHT22;6775;49.574;11.170;2022-12-29T16:01:00;10.20;99.90
13409;DHT22;6775;49.574;11.170;2022-12-29T16:03:32;10.20;99.90
13409;DHT22;6775;49.574;11.170;2022-12-29T16:06:10;10.20;99.90
13409;DHT22;6775;49.574;11.170;2022-12-29T16:08:39;10.20;99.90
13409;DHT22;6775;49.574;11.170;2022-12-29T16:11:24;10.20;99.90
13409;DHT22;6775;49.574;11.170;2022-12-29T16:13:54;10.20;99.90
13409;DHT22;6775;49.574;11.170;2022-12-29T16:16:26;10.20;99.90
13409;DHT22;6775;49.574;11.170;2022-12-29T16:18:56;10.20;99.90
13409;DHT22;6775;49.574;11.170;2022-12-29T16:21:28;10.10;99.90
13409;DHT22;6775;49.574;11.170;2022-12-29T16:24:01;10.10;99.90
13409;DHT22;6775;49.574;11.170;2022-12-29T16:26:30;10.10;99.90
13409;DHT22;6775;49.574;11.170;2022-12-29T16:29:00;10.10;99.90